Time;durP1;ratioP1;P1;durP2;ratioP2;P2;SDS_P1;SDS_P2;PMS_P1;PMS_P2;Temp;Humidity;BMP_temperature;BMP_pressure;BME280_temperature;BME280_humidity;BME280_pressure;Samples;Min_cycle;Max_cycle;Signal;HPM_P1;HPM_P2
2023/10/17 00:02:25;;;;;;;11.32;6.15;;;;;;;;;;4959192;28;20419;-75
2023/10/17 00:04:51;;;;;;;10.32;6.07;;;;;;;;;;4964543;28;20476;-74
2023/10/17 00:07:16;;;;;;;9.80;6.35;;;;;;;;;;4962692;28;20041;-76
2023/10/17 00:09:42;;;;;;;10.45;6.72;;;;;;;;;;4957501;28;20092;-74
2023/10/17 00:14:45;;;;;;;10.57;6.35;;;;;;;;;;4973938;28;20043;-74
2023/10/17 00:17:16;;;;;;;11.15;6.60;;;;;;;;;;4941945;28;20586;-75
2023/10/17 00:19:42;;;;;;;10.05;6.05;;;;;;;;;;4955971;28;20043;-75
2023/10/17 00:22:09;;;;;;;10.38;6.97;;;;;;;;;;4959408;28;20496;-75
2023/10/17 00:24:35;;;;;;;9.25;5.53;;;;;;;;;;4941522;28;20561;-76
2023/10/17 00:27:02;;;;;;;8.35;5.22;;;;;;;;;;4971498;28;20197;-75
2023/10/17 00:29:28;;;;;;;10.00;5.38;;;;;;;;;;4955688;28;20046;-75
2023/10/17 00:31:53;;;;;;;8.98;5.90;;;;;;;;;;4956416;28;20031;-75
2023/10/17 00:34:25;;;;;;;8.73;5.90;;;;;;;;;;4956540;28;20498;-76
2023/10/17 00:36:51;;;;;;;10.32;5.90;;;;;;;;;;4958729;28;20043;-75
2023/10/17 00:39:39;;;;;;;9.77;5.40;;;;;;;;;;4957409;28;20093;-76
2023/10/17 00:44:39;;;;;;;10.75;6.13;;;;;;;;;;4957205;28;20061;-74
2023/10/17 00:47:08;;;;;;;8.23;5.50;;;;;;;;;;4946003;28;20526;-76
2023/10/17 00:49:42;;;;;;;10.77;6.45;;;;;;;;;;4964219;28;20121;-74
2023/10/17 00:52:18;;;;;;;9.52;6.15;;;;;;;;;;4970665;28;20222;-74
2023/10/17 00:54:48;;;;;;;9.43;6.00;;;;;;;;;;4962363;28;20038;-75
2023/10/17 00:57:15;;;;;;;10.02;5.90;;;;;;;;;;4961913;28;20122;-76
2023/10/17 00:59:50;;;;;;;10.30;6.32;;;;;;;;;;4940790;28;20031;-75
2023/10/17 01:02:20;;;;;;;9.38;5.72;;;;;;;;;;4970663;28;20043;-75
2023/10/17 01:04:45;;;;;;;9.40;5.88;;;;;;;;;;4954984;28;20505;-75
2023/10/17 01:07:12;;;;;;;8.32;5.95;;;;;;;;;;4946621;28;20046;-75
2023/10/17 01:09:38;;;;;;;10.73;6.60;;;;;;;;;;4962474;28;20070;-75
2023/10/17 01:12:10;;;;;;;9.77;6.20;;;;;;;;;;4954844;28;20150;-74
2023/10/17 01:14:36;;;;;;;8.45;5.63;;;;;;;;;;4962249;28;20037;-75
2023/10/17 01:17:08;;;;;;;10.55;6.22;;;;;;;;;;4956202;28;20035;-75
2023/10/17 01:19:35;;;;;;;9.85;6.03;;;;;;;;;;4970705;28;20034;-74
2023/10/17 01:22:01;;;;;;;10.55;5.90;;;;;;;;;;4973921;28;20038;-75
2023/10/17 01:24:26;;;;;;;10.68;6.32;;;;;;;;;;4946063;28;20045;-74
2023/10/17 01:26:52;;;;;;;9.20;6.20;;;;;;;;;;4953918;28;20047;-75
2023/10/17 01:29:18;;;;;;;10.27;5.75;;;;;;;;;;4972565;28;20058;-74
2023/10/17 01:31:44;;;;;;;8.55;5.85;;;;;;;;;;4972095;28;20138;-76
2023/10/17 01:34:12;;;;;;;10.05;6.20;;;;;;;;;;4973719;28;20451;-76
2023/10/17 01:36:38;;;;;;;8.82;5.40;;;;;;;;;;4945411;28;20046;-77
2023/10/17 01:39:10;;;;;;;10.35;5.80;;;;;;;;;;4939883;28;20391;-74
2023/10/17 01:41:47;;;;;;;9.43;5.63;;;;;;;;;;4955606;28;20039;-74
2023/10/17 01:44:12;;;;;;;9.80;5.78;;;;;;;;;;4955946;28;20126;-75
2023/10/17 01:46:38;;;;;;;9.57;5.78;;;;;;;;;;4954757;28;20125;-75
2023/10/17 01:49:10;;;;;;;7.68;5.57;;;;;;;;;;4954880;28;20036;-75
2023/10/17 01:51:36;;;;;;;9.52;5.30;;;;;;;;;;4961452;28;20035;-75
2023/10/17 01:54:11;;;;;;;8.05;5.57;;;;;;;;;;4955383;28;20101;-75
2023/10/17 01:56:40;;;;;;;7.80;5.60;;;;;;;;;;4954651;28;20038;-75
2023/10/17 01:59:48;;;;;;;9.85;6.10;;;;;;;;;;4955066;28;20035;-75
2023/10/17 02:01:56;;;;;;;9.63;5.78;;;;;;;;;;4944181;28;20122;-74
2023/10/17 02:04:24;;;;;;;7.43;5.38;;;;;;;;;;4955139;28;20491;-75
2023/10/17 02:06:50;;;;;;;9.13;5.10;;;;;;;;;;4953947;28;20857;-75
2023/10/17 02:12:00;;;;;;;8.98;5.10;;;;;;;;;;4954927;28;20050;-76
2023/10/17 02:14:25;;;;;;;9.52;6.07;;;;;;;;;;4955811;28;20043;-75
2023/10/17 02:16:51;;;;;;;10.27;5.88;;;;;;;;;;4931888;28;20408;-75
2023/10/17 02:19:19;;;;;;;7.53;5.20;;;;;;;;;;4959143;28;20074;-75
2023/10/17 02:21:49;;;;;;;9.48;5.68;;;;;;;;;;4972876;28;20039;-76
2023/10/17 02:24:16;;;;;;;10.40;5.22;;;;;;;;;;4959618;28;20139;-75
2023/10/17 02:27:30;;;;;;;8.40;5.53;;;;;;;;;;4956727;28;20043;-76
2023/10/17 02:29:39;;;;;;;8.27;5.00;;;;;;;;;;4953024;28;20535;-76
2023/10/17 02:32:13;;;;;;;7.55;5.18;;;;;;;;;;4957260;28;20027;-75
2023/10/17 02:34:40;;;;;;;8.13;5.03;;;;;;;;;;4951070;28;20077;-75
2023/10/17 02:37:10;;;;;;;7.82;5.18;;;;;;;;;;4957575;28;20491;-75
2023/10/17 02:39:37;;;;;;;9.25;5.18;;;;;;;;;;4943440;28;20039;-76
2023/10/17 02:42:12;;;;;;;8.57;5.07;;;;;;;;;;4942259;28;20043;-74
2023/10/17 02:44:43;;;;;;;8.85;5.18;;;;;;;;;;4942515;28;20037;-74
2023/10/17 02:47:12;;;;;;;7.72;4.97;;;;;;;;;;4959154;28;20039;-74
2023/10/17 02:49:39;;;;;;;8.13;4.88;;;;;;;;;;4960112;28;20042;-74
2023/10/17 02:52:05;;;;;;;10.93;4.95;;;;;;;;;;4948536;28;20372;-74
2023/10/17 02:54:34;;;;;;;7.18;4.93;;;;;;;;;;4948073;28;20121;-74
2023/10/17 02:57:00;;;;;;;7.25;4.60;;;;;;;;;;4957593;28;20391;-74
2023/10/17 02:59:28;;;;;;;7.97;4.82;;;;;;;;;;4956680;28;20039;-75
2023/10/17 03:01:53;;;;;;;7.88;4.25;;;;;;;;;;4941973;28;20031;-73
2023/10/17 03:04:23;;;;;;;9.48;4.68;;;;;;;;;;4964647;28;20128;-74
2023/10/17 03:06:53;;;;;;;7.63;5.00;;;;;;;;;;4957008;28;20189;-75
2023/10/17 03:12:07;;;;;;;8.40;4.63;;;;;;;;;;4958272;28;20073;-75
2023/10/17 03:17:04;;;;;;;7.78;4.75;;;;;;;;;;4956840;28;20042;-75
2023/10/17 03:19:29;;;;;;;9.75;5.43;;;;;;;;;;4940202;28;20427;-74
2023/10/17 03:21:58;;;;;;;8.40;5.22;;;;;;;;;;4948326;28;20034;-75
2023/10/17 03:24:28;;;;;;;6.47;4.53;;;;;;;;;;4973834;28;20422;-75
2023/10/17 03:27:03;;;;;;;8.27;4.75;;;;;;;;;;4956167;28;20051;-75
2023/10/17 03:29:28;;;;;;;8.90;4.65;;;;;;;;;;4963674;28;20479;-74
2023/10/17 03:31:58;;;;;;;10.38;5.03;;;;;;;;;;4955546;28;20035;-75
2023/10/17 03:34:35;;;;;;;8.93;4.90;;;;;;;;;;4941491;28;20069;-74
2023/10/17 03:39:57;;;;;;;9.07;5.47;;;;;;;;;;4960410;28;20055;-74
2023/10/17 03:45:13;;;;;;;7.38;4.75;;;;;;;;;;4957172;28;20125;-74
2023/10/17 03:47:42;;;;;;;7.90;5.00;;;;;;;;;;4963543;28;20042;-75
2023/10/17 03:50:08;;;;;;;9.63;5.40;;;;;;;;;;4979832;28;20047;-74
2023/10/17 03:52:38;;;;;;;8.57;4.85;;;;;;;;;;4962801;28;20097;-74
2023/10/17 03:55:10;;;;;;;6.85;4.70;;;;;;;;;;4941060;28;20495;-74
2023/10/17 03:57:39;;;;;;;10.10;4.70;;;;;;;;;;4941405;28;20045;-76
2023/10/17 04:00:18;;;;;;;8.10;5.20;;;;;;;;;;4971417;28;20038;-75
2023/10/17 04:02:44;;;;;;;7.75;4.95;;;;;;;;;;4942238;28;20049;-75
2023/10/17 04:05:17;;;;;;;8.30;4.75;;;;;;;;;;4956550;28;20042;-75
2023/10/17 04:07:42;;;;;;;8.05;4.97;;;;;;;;;;4941492;28;20494;-76
2023/10/17 04:12:39;;;;;;;8.25;4.60;;;;;;;;;;4949364;28;20034;-75
2023/10/17 04:15:09;;;;;;;8.70;4.75;;;;;;;;;;4976388;28;20691;-75
2023/10/17 04:17:36;;;;;;;8.93;4.97;;;;;;;;;;4956866;28;20074;-75
2023/10/17 04:20:11;;;;;;;8.43;5.07;;;;;;;;;;4941045;28;20062;-75
2023/10/17 04:22:43;;;;;;;7.65;4.82;;;;;;;;;;4946476;28;20066;-73
2023/10/17 04:27:59;;;;;;;7.53;4.78;;;;;;;;;;4956404;28;20042;-75
2023/10/17 04:30:46;;;;;;;7.43;4.53;;;;;;;;;;4941174;28;20628;-75
2023/10/17 04:33:19;;;;;;;6.75;4.50;;;;;;;;;;4962107;28;20103;-79
2023/10/17 04:35:53;;;;;;;8.15;4.22;;;;;;;;;;4955979;28;20035;-80
2023/10/17 04:38:19;;;;;;;8.82;4.80;;;;;;;;;;4948119;28;20089;-81
2023/10/17 04:41:13;;;;;;;11.27;5.18;;;;;;;;;;4940241;28;20042;-79
2023/10/17 04:43:55;;;;;;;9.73;5.30;;;;;;;;;;4949095;28;20031;-80
2023/10/17 04:46:35;;;;;;;8.57;5.00;;;;;;;;;;4960837;28;20531;-76
2023/10/17 04:49:07;;;;;;;9.15;5.28;;;;;;;;;;4957620;28;20678;-76
2023/10/17 04:51:38;;;;;;;8.02;4.80;;;;;;;;;;4957246;28;20043;-76
2023/10/17 04:54:20;;;;;;;8.05;5.15;;;;;;;;;;4947697;28;20035;-76
2023/10/17 04:57:02;;;;;;;8.50;4.93;;;;;;;;;;4955232;28;20039;-77
2023/10/17 05:08:11;;;;;;;9.23;5.65;;;;;;;;;;4972352;28;20368;-78
2023/10/17 06:18:58;;;;;;;9.60;5.40;;;;;;;;;;4972234;28;20046;-75
2023/10/17 06:21:38;;;;;;;11.77;6.43;;;;;;;;;;4965988;28;20090;-77
2023/10/17 06:27:11;;;;;;;11.05;5.68;;;;;;;;;;4974219;28;20066;-76
2023/10/17 06:34:47;;;;;;;11.68;6.13;;;;;;;;;;4958949;28;20046;-79
2023/10/17 06:37:19;;;;;;;11.32;5.78;;;;;;;;;;4957885;28;20050;-78
2023/10/17 06:39:48;;;;;;;9.75;5.60;;;;;;;;;;4958786;28;20491;-76
2023/10/17 06:42:27;;;;;;;12.05;6.55;;;;;;;;;;4944904;28;20050;-77
2023/10/17 06:45:07;;;;;;;10.50;4.93;;;;;;;;;;4972165;28;20035;-76
2023/10/17 06:47:41;;;;;;;10.48;5.72;;;;;;;;;;4962670;28;20086;-75
2023/10/17 06:53:02;;;;;;;11.52;5.53;;;;;;;;;;4929640;28;20403;-77
2023/10/17 06:55:43;;;;;;;8.82;4.93;;;;;;;;;;4974285;28;20430;-77
2023/10/17 06:58:09;;;;;;;9.77;5.10;;;;;;;;;;4963948;28;20507;-77
2023/10/17 07:03:15;;;;;;;8.13;3.97;;;;;;;;;;4958857;28;20130;-77
2023/10/17 07:05:42;;;;;;;8.18;4.00;;;;;;;;;;4974825;28;20499;-78
2023/10/17 07:08:14;;;;;;;9.45;4.30;;;;;;;;;;4960103;28;20043;-77
2023/10/17 07:10:53;;;;;;;6.88;4.13;;;;;;;;;;4941501;28;20507;-77
2023/10/17 07:13:50;;;;;;;12.13;4.55;;;;;;;;;;4950990;28;20424;-78
2023/10/17 07:16:25;;;;;;;8.23;4.75;;;;;;;;;;4959173;28;20134;-77
2023/10/17 07:18:54;;;;;;;8.70;4.32;;;;;;;;;;4943355;28;20443;-76
2023/10/17 07:21:24;;;;;;;8.85;4.60;;;;;;;;;;4973673;28;20141;-77
2023/10/17 07:23:53;;;;;;;8.80;4.70;;;;;;;;;;4961824;28;20391;-77
2023/10/17 07:28:55;;;;;;;8.15;4.18;;;;;;;;;;4959372;28;20035;-77
2023/10/17 07:31:24;;;;;;;8.27;4.10;;;;;;;;;;4958613;28;20051;-77
2023/10/17 07:34:07;;;;;;;9.82;4.28;;;;;;;;;;4938465;28;20414;-77
2023/10/17 07:36:36;;;;;;;7.88;4.20;;;;;;;;;;4956655;28;21735;-77
2023/10/17 07:39:05;;;;;;;8.35;3.50;;;;;;;;;;4958770;28;20031;-77
2023/10/17 07:41:37;;;;;;;6.88;4.35;;;;;;;;;;4972526;28;20101;-77
2023/10/17 07:49:41;;;;;;;7.25;3.63;;;;;;;;;;4957152;28;20498;-77
2023/10/17 07:52:23;;;;;;;5.40;3.20;;;;;;;;;;4958288;28;20077;-76
2023/10/17 07:54:58;;;;;;;7.47;3.65;;;;;;;;;;4957081;28;20035;-76
2023/10/17 07:57:27;;;;;;;8.30;2.95;;;;;;;;;;4944244;28;20043;-77
2023/10/17 07:59:57;;;;;;;7.75;2.92;;;;;;;;;;4957334;28;20038;-76
2023/10/17 08:02:23;;;;;;;6.47;3.10;;;;;;;;;;4940347;28;20994;-77
2023/10/17 08:04:50;;;;;;;6.55;3.13;;;;;;;;;;4978192;28;20035;-77
2023/10/17 08:07:20;;;;;;;8.30;2.83;;;;;;;;;;4962952;28;20039;-76
2023/10/17 08:09:56;;;;;;;7.30;2.85;;;;;;;;;;4948561;28;20457;-76
2023/10/17 08:12:23;;;;;;;8.07;2.92;;;;;;;;;;4956020;28;20066;-76
2023/10/17 08:14:58;;;;;;;;;;;;;;;;;;4955444;28;20038;-76
2023/10/17 08:17:28;;;;;;;4.30;2.38;;;;;;;;;;4958601;28;20054;-78
2023/10/17 08:20:00;;;;;;;5.47;2.45;;;;;;;;;;4942089;28;20483;-76
2023/10/17 08:22:26;;;;;;;6.13;2.47;;;;;;;;;;4939109;28;20563;-76
2023/10/17 08:24:53;;;;;;;6.78;3.17;;;;;;;;;;4955881;28;20530;-76
2023/10/17 08:29:57;;;;;;;5.65;2.10;;;;;;;;;;4958461;28;20082;-77
2023/10/17 08:34:59;;;;;;;6.80;2.70;;;;;;;;;;4969448;28;20046;-77
2023/10/17 08:37:39;;;;;;;6.28;2.30;;;;;;;;;;4973295;28;21006;-77
2023/10/17 08:40:54;;;;;;;7.97;2.33;;;;;;;;;;4945400;28;20033;-77
2023/10/17 08:42:52;;;;;;;5.93;2.08;;;;;;;;;;4942184;28;20046;-77
2023/10/17 08:45:19;;;;;;;3.88;1.60;;;;;;;;;;4956207;28;20039;-76
2023/10/17 08:47:46;;;;;;;4.97;1.80;;;;;;;;;;4963225;28;20046;-76
2023/10/17 08:50:15;;;;;;;8.20;1.60;;;;;;;;;;4940394;28;20043;-76
2023/10/17 08:52:43;;;;;;;5.22;1.95;;;;;;;;;;4960632;28;20101;-76
2023/10/17 08:55:15;;;;;;;6.07;1.63;;;;;;;;;;4945213;28;20043;-76
2023/10/17 08:57:40;;;;;;;6.93;2.17;;;;;;;;;;4941032;28;20519;-76
2023/10/17 09:02:35;;;;;;;6.80;1.95;;;;;;;;;;4972016;28;20062;-76
2023/10/17 09:05:26;;;;;;;4.63;1.70;;;;;;;;;;4955837;28;20047;-78
2023/10/17 09:07:55;;;;;;;4.68;1.83;;;;;;;;;;4956708;28;20126;-76
2023/10/17 09:10:27;;;;;;;3.92;1.58;;;;;;;;;;4955974;28;20636;-78
2023/10/17 09:13:46;;;;;;;5.00;1.90;;;;;;;;;;4955873;28;20550;-77
2023/10/17 09:16:11;;;;;;;4.18;1.40;;;;;;;;;;4965850;28;20039;-75
2023/10/17 09:18:40;;;;;;;2.88;1.27;;;;;;;;;;4945983;28;20034;-75
2023/10/17 09:21:06;;;;;;;5.75;1.83;;;;;;;;;;4943148;28;20038;-77
2023/10/17 09:23:32;;;;;;;3.78;1.00;;;;;;;;;;4977491;28;20730;-77
2023/10/17 09:26:00;;;;;;;5.10;1.38;;;;;;;;;;4945546;28;20046;-78
2023/10/17 09:28:28;;;;;;;5.82;1.50;;;;;;;;;;4957095;28;20061;-78
2023/10/17 09:31:07;;;;;;;3.70;1.50;;;;;;;;;;4969084;28;20058;-78
2023/10/17 09:33:35;;;;;;;5.85;1.67;;;;;;;;;;4958872;28;20122;-77
2023/10/17 09:36:06;;;;;;;5.40;1.63;;;;;;;;;;4961501;28;20042;-77
2023/10/17 09:38:41;;;;;;;5.50;1.55;;;;;;;;;;4954081;28;20684;-77
2023/10/17 09:41:08;;;;;;;3.80;1.60;;;;;;;;;;4939110;28;20039;-78
2023/10/17 09:43:36;;;;;;;3.83;1.50;;;;;;;;;;4946867;28;20042;-77
2023/10/17 09:46:03;;;;;;;4.00;1.50;;;;;;;;;;4956789;28;20038;-77
2023/10/17 09:48:43;;;;;;;4.60;1.50;;;;;;;;;;4971024;28;20079;-77
2023/10/17 09:51:24;;;;;;;5.88;1.40;;;;;;;;;;4953535;28;20042;-77
2023/10/17 09:53:54;;;;;;;6.57;1.67;;;;;;;;;;4962353;28;20499;-77
2023/10/17 09:56:22;;;;;;;4.38;1.20;;;;;;;;;;4956253;28;20031;-76
2023/10/17 09:58:52;;;;;;;4.68;1.10;;;;;;;;;;4955867;28;20459;-76
2023/10/17 10:01:20;;;;;;;;;;;;;;;;;;4947490;28;20037;-76
2023/10/17 10:03:51;;;;;;;3.45;1.08;;;;;;;;;;4962413;28;19914;-76
2023/10/17 10:06:33;;;;;;;4.25;0.90;;;;;;;;;;4961674;28;20039;-77
2023/10/17 10:09:13;;;;;;;4.32;0.80;;;;;;;;;;4964520;28;20063;-77
2023/10/17 10:11:48;;;;;;;2.50;0.90;;;;;;;;;;4956221;28;20420;-76
2023/10/17 10:14:15;;;;;;;5.05;0.90;;;;;;;;;;4970786;28;20553;-77
2023/10/17 10:16:54;;;;;;;2.83;0.82;;;;;;;;;;4954336;28;20067;-78
2023/10/17 10:19:22;;;;;;;4.45;0.70;;;;;;;;;;4956964;28;20376;-77
2023/10/17 10:21:55;;;;;;;4.30;0.90;;;;;;;;;;4939872;28;20029;-77
2023/10/17 10:24:30;;;;;;;3.50;0.88;;;;;;;;;;4956090;28;20335;-77
2023/10/17 10:27:18;;;;;;;2.97;0.80;;;;;;;;;;4972152;28;20043;-77
2023/10/17 10:29:47;;;;;;;4.38;0.98;;;;;;;;;;4956474;28;20035;-77
2023/10/17 10:32:45;;;;;;;4.10;1.02;;;;;;;;;;4972107;28;20039;-76
2023/10/17 10:35:11;;;;;;;4.55;0.90;;;;;;;;;;4901169;29;20527;-77
2023/10/17 10:37:52;;;;;;;2.78;0.90;;;;;;;;;;4921995;29;20035;-78
2023/10/17 10:40:22;;;;;;;4.60;0.88;;;;;;;;;;4913219;29;20074;-77
2023/10/17 10:42:52;;;;;;;3.67;0.60;;;;;;;;;;4907979;29;20122;-76
2023/10/17 10:45:25;;;;;;;3.25;0.60;;;;;;;;;;4902981;29;20500;-77
2023/10/17 10:47:57;;;;;;;3.58;0.73;;;;;;;;;;4937175;29;20040;-76
2023/10/17 10:50:27;;;;;;;2.80;0.90;;;;;;;;;;4944313;29;20043;-78
2023/10/17 10:52:53;;;;;;;2.13;0.75;;;;;;;;;;4903924;29;20169;-78
2023/10/17 10:55:20;;;;;;;2.88;0.50;;;;;;;;;;4906645;29;20313;-78
2023/10/17 10:57:46;;;;;;;2.45;0.60;;;;;;;;;;4921987;29;20039;-77
2023/10/17 11:00:15;;;;;;;1.05;0.47;;;;;;;;;;4911696;29;20375;-75
2023/10/17 11:02:42;;;;;;;2.58;0.52;;;;;;;;;;4905574;29;20167;-78
2023/10/17 11:05:10;;;;;;;1.42;0.40;;;;;;;;;;4943584;29;20125;-76
2023/10/17 11:07:36;;;;;;;;;;;;;;;;;;4938879;29;20050;-77
2023/10/17 11:10:10;;;;;;;1.52;0.40;;;;;;;;;;4940758;28;20362;-76
2023/10/17 11:12:37;;;;;;;3.33;0.80;;;;;;;;;;4960953;28;20062;-78
2023/10/17 11:15:26;;;;;;;3.40;0.93;;;;;;;;;;4957819;28;20046;-76
2023/10/17 11:17:59;;;;;;;3.15;0.50;;;;;;;;;;4973247;28;20039;-75
2023/10/17 11:20:25;;;;;;;4.47;0.82;;;;;;;;;;4956561;28;20510;-76
2023/10/17 11:22:50;;;;;;;2.35;0.60;;;;;;;;;;4960881;28;20027;-77
2023/10/17 11:25:26;;;;;;;3.50;0.63;;;;;;;;;;4942806;28;20038;-77
2023/10/17 11:28:07;;;;;;;4.13;0.93;;;;;;;;;;4943980;28;20071;-77
2023/10/17 11:30:40;;;;;;;3.25;0.77;;;;;;;;;;4960315;28;20543;-78
2023/10/17 11:33:15;;;;;;;3.50;0.70;;;;;;;;;;4947587;28;20389;-77
2023/10/17 11:35:47;;;;;;;2.25;0.50;;;;;;;;;;4942481;28;20038;-76
2023/10/17 11:38:37;;;;;;;2.28;0.60;;;;;;;;;;4959062;28;20513;-78
2023/10/17 11:41:04;;;;;;;2.22;0.55;;;;;;;;;;4937982;28;20043;-77
2023/10/17 11:43:34;;;;;;;1.75;0.60;;;;;;;;;;4930484;28;20085;-76
2023/10/17 11:46:00;;;;;;;1.83;0.60;;;;;;;;;;4958622;28;20039;-77
2023/10/17 11:48:33;;;;;;;1.85;0.50;;;;;;;;;;4963381;28;20051;-78
2023/10/17 11:51:12;;;;;;;3.95;1.05;;;;;;;;;;4963465;28;20042;-77
2023/10/17 11:54:05;;;;;;;2.45;0.50;;;;;;;;;;4958707;28;20445;-76
2023/10/17 11:56:32;;;;;;;4.07;0.57;;;;;;;;;;4958022;28;20062;-77
2023/10/17 11:58:58;;;;;;;3.42;0.70;;;;;;;;;;4958610;28;20031;-76
2023/10/17 12:01:29;;;;;;;2.00;0.40;;;;;;;;;;4957664;28;20077;-77
2023/10/17 12:03:57;;;;;;;3.80;0.70;;;;;;;;;;4940501;28;20483;-77
2023/10/17 12:06:28;;;;;;;2.72;0.70;;;;;;;;;;4943922;28;20499;-77
2023/10/17 12:08:55;;;;;;;2.42;0.68;;;;;;;;;;4957628;28;20074;-76
2023/10/17 12:11:24;;;;;;;1.75;0.50;;;;;;;;;;4956390;28;20038;-76
2023/10/17 12:13:53;;;;;;;3.20;0.50;;;;;;;;;;4941447;28;20030;-76
2023/10/17 12:16:23;;;;;;;2.42;0.80;;;;;;;;;;4949544;28;20047;-76
2023/10/17 12:18:50;;;;;;;2.92;0.70;;;;;;;;;;4972297;28;20506;-77
2023/10/17 12:21:16;;;;;;;2.72;0.70;;;;;;;;;;4956993;28;20090;-76
2023/10/17 12:23:41;;;;;;;1.80;0.55;;;;;;;;;;4964451;28;20034;-77
2023/10/17 12:26:13;;;;;;;3.20;0.65;;;;;;;;;;4951659;28;20076;-77
2023/10/17 12:28:42;;;;;;;2.95;1.00;;;;;;;;;;4956469;28;20129;-79
2023/10/17 12:31:09;;;;;;;2.17;0.60;;;;;;;;;;4971912;28;20414;-77
2023/10/17 12:33:36;;;;;;;2.60;0.70;;;;;;;;;;4941186;28;20039;-75
2023/10/17 12:36:04;;;;;;;1.60;0.60;;;;;;;;;;4938315;28;20041;-76
2023/10/17 12:38:33;;;;;;;2.33;0.70;;;;;;;;;;4940981;28;20035;-76
2023/10/17 12:40:59;;;;;;;1.75;0.50;;;;;;;;;;4940086;28;20507;-76
2023/10/17 12:43:25;;;;;;;2.28;0.80;;;;;;;;;;4963154;28;20045;-77
2023/10/17 12:45:50;;;;;;;1.95;0.50;;;;;;;;;;4948480;28;20675;-76
2023/10/17 12:48:16;;;;;;;1.70;0.52;;;;;;;;;;4971292;28;20054;-77
2023/10/17 12:50:44;;;;;;;2.83;0.60;;;;;;;;;;4956771;28;20040;-77
2023/10/17 12:53:13;;;;;;;3.50;0.60;;;;;;;;;;4948591;28;20047;-77
2023/10/17 12:55:40;;;;;;;1.33;0.50;;;;;;;;;;4963196;28;20034;-77
2023/10/17 12:58:07;;;;;;;1.95;0.60;;;;;;;;;;4971953;28;20511;-77
2023/10/17 13:00:34;;;;;;;2.40;0.55;;;;;;;;;;4946503;28;20035;-77
2023/10/17 13:03:00;;;;;;;3.83;0.70;;;;;;;;;;4962222;28;20031;-77
2023/10/17 13:05:26;;;;;;;3.28;0.95;;;;;;;;;;4941392;28;20035;-78
2023/10/17 13:07:52;;;;;;;3.25;0.63;;;;;;;;;;4938816;28;20507;-79
2023/10/17 13:10:19;;;;;;;1.92;0.73;;;;;;;;;;4972156;28;20043;-77
2023/10/17 13:12:46;;;;;;;2.95;0.70;;;;;;;;;;4939631;28;20042;-76
2023/10/17 13:15:14;;;;;;;2.88;0.60;;;;;;;;;;4956800;28;20043;-74
2023/10/17 13:17:40;;;;;;;2.50;0.60;;;;;;;;;;4956682;28;20093;-76
2023/10/17 13:20:07;;;;;;;2.40;0.68;;;;;;;;;;4943504;28;20044;-77
2023/10/17 13:22:41;;;;;;;2.58;0.73;;;;;;;;;;4948268;28;20043;-77
2023/10/17 13:25:10;;;;;;;2.25;0.60;;;;;;;;;;4955729;28;20039;-76
2023/10/17 13:27:40;;;;;;;2.92;0.60;;;;;;;;;;4961926;28;20039;-76
2023/10/17 13:30:06;;;;;;;2.33;0.60;;;;;;;;;;4963379;28;20047;-75
2023/10/17 13:32:32;;;;;;;2.08;0.60;;;;;;;;;;4977319;28;20035;-77
2023/10/17 13:34:57;;;;;;;3.28;0.70;;;;;;;;;;4957461;28;20035;-76
2023/10/17 13:37:23;;;;;;;2.13;0.50;;;;;;;;;;4957713;28;20043;-77
2023/10/17 13:39:48;;;;;;;3.05;0.50;;;;;;;;;;4971436;28;20031;-76
2023/10/17 13:42:14;;;;;;;1.70;0.50;;;;;;;;;;4954958;28;20122;-76
2023/10/17 13:44:39;;;;;;;2.40;0.60;;;;;;;;;;4939508;28;20535;-77
2023/10/17 13:47:07;;;;;;;1.98;0.65;;;;;;;;;;4957728;28;20046;-76
2023/10/17 13:49:34;;;;;;;2.67;0.60;;;;;;;;;;4955813;28;20050;-76
2023/10/17 13:51:59;;;;;;;2.50;0.50;;;;;;;;;;4959430;28;20059;-77
2023/10/17 13:54:27;;;;;;;2.63;0.55;;;;;;;;;;4938033;28;20042;-77
2023/10/17 13:56:54;;;;;;;2.47;0.60;;;;;;;;;;4956726;28;20031;-76
2023/10/17 13:59:19;;;;;;;1.73;0.47;;;;;;;;;;4955773;28;20112;-76
2023/10/17 14:01:46;;;;;;;4.47;0.70;;;;;;;;;;4956419;28;20039;-77
2023/10/17 14:04:12;;;;;;;2.55;0.60;;;;;;;;;;4964008;28;20137;-77
2023/10/17 14:06:44;;;;;;;3.78;0.68;;;;;;;;;;4972285;28;20359;-77
2023/10/17 14:09:23;;;;;;;2.95;0.70;;;;;;;;;;4977277;28;20047;-76
2023/10/17 14:11:50;;;;;;;2.95;0.80;;;;;;;;;;4956850;28;20035;-77
2023/10/17 14:14:16;;;;;;;4.07;0.60;;;;;;;;;;4949753;28;20047;-76
2023/10/17 14:16:43;;;;;;;2.20;0.50;;;;;;;;;;4960119;28;20055;-76
2023/10/17 14:19:15;;;;;;;2.03;0.60;;;;;;;;;;4960342;28;20058;-77
2023/10/17 14:22:04;;;;;;;2.88;0.57;;;;;;;;;;4959449;28;20046;-76
2023/10/17 14:24:49;;;;;;;1.73;0.60;;;;;;;;;;4952458;28;20043;-78
2023/10/17 14:27:15;;;;;;;2.28;0.60;;;;;;;;;;4959395;28;20121;-78
2023/10/17 14:29:44;;;;;;;1.90;0.60;;;;;;;;;;4945085;28;20415;-79
2023/10/17 14:32:09;;;;;;;3.33;0.70;;;;;;;;;;4966455;28;20039;-78
2023/10/17 14:34:37;;;;;;;2.95;0.60;;;;;;;;;;4977422;28;20057;-78
2023/10/17 14:37:05;;;;;;;2.75;0.60;;;;;;;;;;4959359;28;20123;-78
2023/10/17 14:39:31;;;;;;;;;;;;;;;;;;4960668;28;20486;-78
2023/10/17 14:41:56;;;;;;;2.38;0.57;;;;;;;;;;4976617;28;19953;-78
2023/10/17 14:44:22;;;;;;;2.15;0.55;;;;;;;;;;4966056;28;21072;-78
2023/10/17 14:46:47;;;;;;;3.90;1.27;;;;;;;;;;4960007;28;20027;-78
2023/10/17 14:49:13;;;;;;;2.38;0.60;;;;;;;;;;4960877;28;20062;-78
2023/10/17 14:51:39;;;;;;;2.20;0.60;;;;;;;;;;4943498;28;20073;-79
2023/10/17 14:54:13;;;;;;;1.90;0.80;;;;;;;;;;4944344;28;20040;-79
2023/10/17 14:56:42;;;;;;;3.28;0.90;;;;;;;;;;4980920;28;21116;-79
2023/10/17 14:59:08;;;;;;;2.58;0.73;;;;;;;;;;4951507;28;20102;-79
2023/10/17 15:01:35;;;;;;;3.13;0.82;;;;;;;;;;4975889;28;20051;-79
2023/10/17 15:04:00;;;;;;;3.10;0.82;;;;;;;;;;4962849;28;20030;-79
2023/10/17 15:06:27;;;;;;;3.03;0.70;;;;;;;;;;4957098;28;20042;-79
2023/10/17 15:08:52;;;;;;;2.63;0.70;;;;;;;;;;4961209;28;20045;-78
2023/10/17 15:11:20;;;;;;;3.20;0.70;;;;;;;;;;4960544;28;20403;-78
2023/10/17 15:13:46;;;;;;;3.55;0.60;;;;;;;;;;4961473;28;20047;-78
2023/10/17 15:16:16;;;;;;;2.50;0.70;;;;;;;;;;4942005;28;20051;-79
2023/10/17 15:18:43;;;;;;;2.03;0.60;;;;;;;;;;4965837;28;20038;-79
2023/10/17 15:21:12;;;;;;;2.72;0.68;;;;;;;;;;4950537;28;20046;-80
2023/10/17 15:23:46;;;;;;;2.88;0.70;;;;;;;;;;4957393;28;20035;-79
2023/10/17 15:26:11;;;;;;;6.00;1.15;;;;;;;;;;4972876;28;20047;-79
2023/10/17 15:28:39;;;;;;;3.40;0.80;;;;;;;;;;4945766;28;20046;-78
2023/10/17 15:31:09;;;;;;;3.20;0.90;;;;;;;;;;4973217;28;20189;-79
2023/10/17 15:33:36;;;;;;;3.03;1.00;;;;;;;;;;4980334;28;20558;-78
2023/10/17 15:36:03;;;;;;;3.00;0.80;;;;;;;;;;4958360;28;20038;-79
2023/10/17 15:38:32;;;;;;;2.90;0.60;;;;;;;;;;4964241;28;20537;-78
2023/10/17 15:40:59;;;;;;;2.92;0.77;;;;;;;;;;4947359;28;20442;-78
2023/10/17 15:43:28;;;;;;;3.40;0.77;;;;;;;;;;4963875;28;20039;-78
2023/10/17 15:45:55;;;;;;;3.67;0.90;;;;;;;;;;4974259;28;20039;-79
2023/10/17 15:48:24;;;;;;;3.73;0.97;;;;;;;;;;4947873;28;20058;-78
2023/10/17 15:50:50;;;;;;;4.75;0.70;;;;;;;;;;4958068;28;20363;-77
2023/10/17 15:53:16;;;;;;;2.47;0.73;;;;;;;;;;4974301;28;20070;-77
2023/10/17 15:55:50;;;;;;;2.78;1.00;;;;;;;;;;4948498;28;20070;-78
2023/10/17 15:58:15;;;;;;;2.65;0.77;;;;;;;;;;4947338;28;20062;-78
2023/10/17 16:00:42;;;;;;;4.22;1.23;;;;;;;;;;4978182;28;20051;-79
2023/10/17 16:03:07;;;;;;;9.82;4.30;;;;;;;;;;4957241;28;20570;-79
2023/10/17 16:05:33;;;;;;;23.45;9.02;;;;;;;;;;4939058;28;20439;-79
2023/10/17 16:07:59;;;;;;;7.03;2.67;;;;;;;;;;4941611;28;20035;-79
2023/10/17 16:10:25;;;;;;;7.72;3.28;;;;;;;;;;4955723;28;20051;-79
2023/10/17 16:12:53;;;;;;;8.35;3.17;;;;;;;;;;4962561;28;20367;-79
2023/10/17 16:15:19;;;;;;;9.60;2.40;;;;;;;;;;4964028;28;20665;-79
2023/10/17 16:17:44;;;;;;;5.25;1.85;;;;;;;;;;4957125;28;20035;-80
2023/10/17 16:20:16;;;;;;;7.03;2.10;;;;;;;;;;4944626;28;20586;-79
2023/10/17 16:22:42;;;;;;;5.43;2.00;;;;;;;;;;4954371;28;20047;-79
2023/10/17 16:25:09;;;;;;;6.13;1.77;;;;;;;;;;4955326;28;20376;-79
2023/10/17 16:27:35;;;;;;;7.73;1.73;;;;;;;;;;4957390;28;20126;-79
2023/10/17 16:30:08;;;;;;;4.72;1.95;;;;;;;;;;4969344;28;20290;-79
2023/10/17 16:32:34;;;;;;;6.75;2.00;;;;;;;;;;4962985;28;20086;-79
2023/10/17 16:35:00;;;;;;;5.20;1.90;;;;;;;;;;4962641;28;20042;-79
2023/10/17 16:37:27;;;;;;;4.40;1.65;;;;;;;;;;4948154;28;20503;-79
2023/10/17 16:39:55;;;;;;;5.63;1.65;;;;;;;;;;4956579;28;20046;-78
2023/10/17 16:42:21;;;;;;;4.15;1.55;;;;;;;;;;4956674;28;20470;-79
2023/10/17 16:44:49;;;;;;;6.18;1.65;;;;;;;;;;4958630;28;20038;-78
2023/10/17 16:47:15;;;;;;;8.32;1.85;;;;;;;;;;4972665;28;20515;-78
2023/10/17 16:49:41;;;;;;;4.15;1.83;;;;;;;;;;4942108;28;20078;-79
2023/10/17 16:52:07;;;;;;;4.22;1.75;;;;;;;;;;4946157;28;20041;-76
2023/10/17 16:54:32;;;;;;;5.57;2.10;;;;;;;;;;4956682;28;20045;-79
2023/10/17 16:56:58;;;;;;;4.82;1.88;;;;;;;;;;4946473;28;20039;-79
2023/10/17 16:59:25;;;;;;;4.03;1.98;;;;;;;;;;4957080;28;20138;-80
2023/10/17 17:01:53;;;;;;;4.60;1.83;;;;;;;;;;4945860;28;20041;-80
2023/10/17 17:04:19;;;;;;;6.30;2.00;;;;;;;;;;4938408;28;20043;-79
2023/10/17 17:06:44;;;;;;;10.70;4.75;;;;;;;;;;4951667;28;20035;-79
2023/10/17 17:09:10;;;;;;;9.82;4.93;;;;;;;;;;4937538;28;20178;-80
2023/10/17 17:11:37;;;;;;;9.25;3.53;;;;;;;;;;4950860;28;20046;-80